sensor_id;sensor_type;location;lat;lon;timestamp;P1;durP1;ratioP1;P2;durP2;ratioP2
5795;SDS011;2924;51.458;7.046;2024-02-16T00:01:06;3.77;;;1.00;;
5795;SDS011;2924;51.458;7.046;2024-02-16T00:03:31;1.37;;;1.27;;
5795;SDS011;2924;51.458;7.046;2024-02-16T00:05:57;1.23;;;1.13;;
5795;SDS011;2924;51.458;7.046;2024-02-16T00:08:23;2.50;;;0.87;;
5795;SDS011;2924;51.458;7.046;2024-02-16T00:10:48;1.53;;;0.97;;
5795;SDS011;2924;51.458;7.046;2024-02-16T00:13:14;3.13;;;0.80;;
5795;SDS011;2924;51.458;7.046;2024-02-16T00:15:40;1.10;;;1.00;;
5795;SDS011;2924;51.458;7.046;2024-02-16T00:18:06;1.17;;;0.93;;
5795;SDS011;2924;51.458;7.046;2024-02-16T00:20:31;7.00;;;1.37;;
5795;SDS011;2924;51.458;7.046;2024-02-16T00:22:57;3.37;;;1.23;;
5795;SDS011;2924;51.458;7.046;2024-02-16T00:25:23;2.50;;;1.00;;
5795;SDS011;2924;51.458;7.046;2024-02-16T00:27:49;2.00;;;0.73;;
5795;SDS011;2924;51.458;7.046;2024-02-16T00:30:18;7.17;;;1.10;;
5795;SDS011;2924;51.458;7.046;2024-02-16T00:32:52;1.40;;;0.70;;
5795;SDS011;2924;51.458;7.046;2024-02-16T00:35:18;2.00;;;0.80;;
5795;SDS011;2924;51.458;7.046;2024-02-16T00:37:44;3.63;;;1.50;;
5795;SDS011;2924;51.458;7.046;2024-02-16T00:40:10;1.00;;;0.90;;
5795;SDS011;2924;51.458;7.046;2024-02-16T00:42:36;1.20;;;1.00;;
5795;SDS011;2924;51.458;7.046;2024-02-16T00:45:02;2.13;;;1.10;;
5795;SDS011;2924;51.458;7.046;2024-02-16T00:47:31;5.50;;;1.00;;
5795;SDS011;2924;51.458;7.046;2024-02-16T00:49:58;1.80;;;0.70;;
5795;SDS011;2924;51.458;7.046;2024-02-16T00:52:24;4.73;;;1.10;;
5795;SDS011;2924;51.458;7.046;2024-02-16T00:54:49;2.37;;;1.47;;
5795;SDS011;2924;51.458;7.046;2024-02-16T00:57:15;3.40;;;1.10;;
5795;SDS011;2924;51.458;7.046;2024-02-16T00:59:41;1.50;;;0.87;;
5795;SDS011;2924;51.458;7.046;2024-02-16T01:02:07;2.30;;;0.80;;
5795;SDS011;2924;51.458;7.046;2024-02-16T01:04:32;1.90;;;1.20;;
5795;SDS011;2924;51.458;7.046;2024-02-16T01:06:59;1.43;;;1.17;;
5795;SDS011;2924;51.458;7.046;2024-02-16T01:09:24;13.23;;;1.40;;
5795;SDS011;2924;51.458;7.046;2024-02-16T01:11:51;5.13;;;1.40;;
5795;SDS011;2924;51.458;7.046;2024-02-16T01:14:17;0.80;;;0.60;;
5795;SDS011;2924;51.458;7.046;2024-02-16T01:16:43;4.87;;;1.37;;
5795;SDS011;2924;51.458;7.046;2024-02-16T01:19:08;1.97;;;1.20;;
5795;SDS011;2924;51.458;7.046;2024-02-16T01:21:34;2.43;;;1.23;;
5795;SDS011;2924;51.458;7.046;2024-02-16T01:24:00;7.47;;;1.67;;
5795;SDS011;2924;51.458;7.046;2024-02-16T01:26:26;1.23;;;1.17;;
5795;SDS011;2924;51.458;7.046;2024-02-16T01:28:53;0.90;;;0.80;;
5795;SDS011;2924;51.458;7.046;2024-02-16T01:31:18;8.10;;;1.50;;
5795;SDS011;2924;51.458;7.046;2024-02-16T01:33:44;1.57;;;1.10;;
5795;SDS011;2924;51.458;7.046;2024-02-16T01:36:10;5.40;;;1.47;;
5795;SDS011;2924;51.458;7.046;2024-02-16T01:38:35;4.63;;;1.67;;
5795;SDS011;2924;51.458;7.046;2024-02-16T01:41:01;1.87;;;1.20;;
5795;SDS011;2924;51.458;7.046;2024-02-16T01:43:27;0.83;;;0.83;;
5795;SDS011;2924;51.458;7.046;2024-02-16T01:45:52;7.00;;;1.20;;
5795;SDS011;2924;51.458;7.046;2024-02-16T01:48:19;2.10;;;1.17;;
5795;SDS011;2924;51.458;7.046;2024-02-16T01:50:45;2.33;;;1.03;;
5795;SDS011;2924;51.458;7.046;2024-02-16T01:53:14;1.20;;;1.10;;
5795;SDS011;2924;51.458;7.046;2024-02-16T01:55:45;1.63;;;1.10;;
5795;SDS011;2924;51.458;7.046;2024-02-16T01:58:11;3.80;;;1.00;;
5795;SDS011;2924;51.458;7.046;2024-02-16T02:00:37;3.50;;;1.40;;
5795;SDS011;2924;51.458;7.046;2024-02-16T02:03:03;2.50;;;1.33;;
5795;SDS011;2924;51.458;7.046;2024-02-16T02:05:28;1.73;;;0.90;;
5795;SDS011;2924;51.458;7.046;2024-02-16T02:07:54;2.00;;;1.07;;
5795;SDS011;2924;51.458;7.046;2024-02-16T02:10:20;5.03;;;0.87;;
5795;SDS011;2924;51.458;7.046;2024-02-16T02:12:45;3.43;;;0.87;;
5795;SDS011;2924;51.458;7.046;2024-02-16T02:15:11;1.83;;;1.00;;
5795;SDS011;2924;51.458;7.046;2024-02-16T02:17:37;1.47;;;1.07;;
5795;SDS011;2924;51.458;7.046;2024-02-16T02:20:03;7.33;;;1.70;;
5795;SDS011;2924;51.458;7.046;2024-02-16T02:22:32;1.03;;;0.87;;
5795;SDS011;2924;51.458;7.046;2024-02-16T02:24:58;2.40;;;1.40;;
5795;SDS011;2924;51.458;7.046;2024-02-16T02:27:24;2.93;;;1.37;;
5795;SDS011;2924;51.458;7.046;2024-02-16T02:29:50;1.33;;;1.20;;
5795;SDS011;2924;51.458;7.046;2024-02-16T02:32:16;3.73;;;0.93;;
5795;SDS011;2924;51.458;7.046;2024-02-16T02:34:41;2.30;;;1.40;;
5795;SDS011;2924;51.458;7.046;2024-02-16T02:37:08;2.63;;;1.57;;
5795;SDS011;2924;51.458;7.046;2024-02-16T02:39:34;2.77;;;0.97;;
5795;SDS011;2924;51.458;7.046;2024-02-16T02:42:00;1.30;;;1.20;;
5795;SDS011;2924;51.458;7.046;2024-02-16T02:44:25;2.20;;;1.17;;
5795;SDS011;2924;51.458;7.046;2024-02-16T02:46:51;1.47;;;1.30;;
5795;SDS011;2924;51.458;7.046;2024-02-16T02:49:17;3.60;;;0.93;;
5795;SDS011;2924;51.458;7.046;2024-02-16T02:51:43;1.17;;;1.07;;
5795;SDS011;2924;51.458;7.046;2024-02-16T02:54:08;4.00;;;1.23;;
5795;SDS011;2924;51.458;7.046;2024-02-16T02:56:34;1.10;;;1.00;;
5795;SDS011;2924;51.458;7.046;2024-02-16T02:59:00;1.60;;;1.20;;
5795;SDS011;2924;51.458;7.046;2024-02-16T03:01:25;2.27;;;1.23;;
5795;SDS011;2924;51.458;7.046;2024-02-16T03:03:51;2.87;;;1.00;;
5795;SDS011;2924;51.458;7.046;2024-02-16T03:06:20;3.80;;;1.20;;
5795;SDS011;2924;51.458;7.046;2024-02-16T03:08:46;1.73;;;1.30;;
5795;SDS011;2924;51.458;7.046;2024-02-16T03:11:12;1.97;;;1.00;;
5795;SDS011;2924;51.458;7.046;2024-02-16T03:13:37;2.10;;;1.20;;
5795;SDS011;2924;51.458;7.046;2024-02-16T03:16:03;2.27;;;1.40;;
5795;SDS011;2924;51.458;7.046;2024-02-16T03:18:30;2.97;;;0.70;;
5795;SDS011;2924;51.458;7.046;2024-02-16T03:20:56;2.00;;;1.30;;
5795;SDS011;2924;51.458;7.046;2024-02-16T03:23:22;1.53;;;0.80;;
5795;SDS011;2924;51.458;7.046;2024-02-16T03:25:48;4.20;;;1.00;;
5795;SDS011;2924;51.458;7.046;2024-02-16T03:28:14;2.83;;;0.93;;
5795;SDS011;2924;51.458;7.046;2024-02-16T03:30:40;4.53;;;1.77;;
5795;SDS011;2924;51.458;7.046;2024-02-16T03:33:07;1.47;;;1.30;;
5795;SDS011;2924;51.458;7.046;2024-02-16T03:35:33;2.13;;;1.37;;
5795;SDS011;2924;51.458;7.046;2024-02-16T03:37:58;2.90;;;1.23;;
5795;SDS011;2924;51.458;7.046;2024-02-16T03:40:24;3.30;;;1.10;;
5795;SDS011;2924;51.458;7.046;2024-02-16T03:42:50;1.37;;;0.80;;
5795;SDS011;2924;51.458;7.046;2024-02-16T03:45:16;1.90;;;1.30;;
5795;SDS011;2924;51.458;7.046;2024-02-16T03:47:41;3.33;;;1.20;;
5795;SDS011;2924;51.458;7.046;2024-02-16T03:50:07;5.13;;;1.53;;
5795;SDS011;2924;51.458;7.046;2024-02-16T03:52:33;1.23;;;1.10;;
5795;SDS011;2924;51.458;7.046;2024-02-16T03:54:58;1.73;;;1.30;;
5795;SDS011;2924;51.458;7.046;2024-02-16T03:57:24;2.57;;;1.23;;
5795;SDS011;2924;51.458;7.046;2024-02-16T03:59:51;7.23;;;0.93;;
5795;SDS011;2924;51.458;7.046;2024-02-16T04:02:16;4.67;;;1.20;;
5795;SDS011;2924;51.458;7.046;2024-02-16T04:04:42;1.73;;;1.03;;
5795;SDS011;2924;51.458;7.046;2024-02-16T04:07:08;3.10;;;0.93;;
5795;SDS011;2924;51.458;7.046;2024-02-16T04:09:36;3.37;;;1.33;;
5795;SDS011;2924;51.458;7.046;2024-02-16T04:12:01;1.10;;;0.93;;
5795;SDS011;2924;51.458;7.046;2024-02-16T04:14:28;3.23;;;1.00;;
5795;SDS011;2924;51.458;7.046;2024-02-16T04:16:55;1.37;;;0.90;;
5795;SDS011;2924;51.458;7.046;2024-02-16T04:19:23;2.40;;;1.33;;
5795;SDS011;2924;51.458;7.046;2024-02-16T04:21:49;3.40;;;0.97;;
5795;SDS011;2924;51.458;7.046;2024-02-16T04:24:15;1.47;;;1.37;;
5795;SDS011;2924;51.458;7.046;2024-02-16T04:26:40;1.83;;;1.43;;
5795;SDS011;2924;51.458;7.046;2024-02-16T04:29:06;5.03;;;1.40;;
5795;SDS011;2924;51.458;7.046;2024-02-16T04:31:31;5.40;;;1.60;;
5795;SDS011;2924;51.458;7.046;2024-02-16T04:33:57;1.10;;;0.97;;
5795;SDS011;2924;51.458;7.046;2024-02-16T04:36:23;2.77;;;1.10;;
5795;SDS011;2924;51.458;7.046;2024-02-16T04:38:48;5.50;;;1.30;;
5795;SDS011;2924;51.458;7.046;2024-02-16T04:41:14;1.90;;;1.20;;
5795;SDS011;2924;51.458;7.046;2024-02-16T04:43:40;2.40;;;1.20;;
5795;SDS011;2924;51.458;7.046;2024-02-16T04:46:06;0.70;;;0.70;;
5795;SDS011;2924;51.458;7.046;2024-02-16T04:48:31;6.53;;;1.63;;
5795;SDS011;2924;51.458;7.046;2024-02-16T04:50:59;1.03;;;0.90;;
5795;SDS011;2924;51.458;7.046;2024-02-16T04:53:24;3.73;;;0.90;;
5795;SDS011;2924;51.458;7.046;2024-02-16T04:55:50;3.37;;;1.17;;
5795;SDS011;2924;51.458;7.046;2024-02-16T04:58:16;1.00;;;0.80;;
5795;SDS011;2924;51.458;7.046;2024-02-16T05:00:42;1.87;;;1.03;;
5795;SDS011;2924;51.458;7.046;2024-02-16T05:03:07;2.90;;;1.40;;
5795;SDS011;2924;51.458;7.046;2024-02-16T05:05:33;3.03;;;1.53;;
5795;SDS011;2924;51.458;7.046;2024-02-16T05:07:58;1.30;;;1.20;;
5795;SDS011;2924;51.458;7.046;2024-02-16T05:10:25;1.40;;;1.00;;
5795;SDS011;2924;51.458;7.046;2024-02-16T05:12:50;5.70;;;1.40;;
5795;SDS011;2924;51.458;7.046;2024-02-16T05:15:16;5.33;;;1.50;;
5795;SDS011;2924;51.458;7.046;2024-02-16T05:17:42;1.27;;;0.90;;
5795;SDS011;2924;51.458;7.046;2024-02-16T05:20:11;4.53;;;0.90;;
5795;SDS011;2924;51.458;7.046;2024-02-16T05:22:43;2.40;;;1.13;;
5795;SDS011;2924;51.458;7.046;2024-02-16T05:25:10;2.30;;;1.27;;
5795;SDS011;2924;51.458;7.046;2024-02-16T05:27:36;3.53;;;1.27;;
5795;SDS011;2924;51.458;7.046;2024-02-16T05:30:02;2.10;;;1.17;;
5795;SDS011;2924;51.458;7.046;2024-02-16T05:32:29;1.33;;;0.90;;
5795;SDS011;2924;51.458;7.046;2024-02-16T05:34:55;1.93;;;1.23;;
5795;SDS011;2924;51.458;7.046;2024-02-16T05:37:20;2.03;;;1.10;;
5795;SDS011;2924;51.458;7.046;2024-02-16T05:39:47;6.87;;;1.67;;
5795;SDS011;2924;51.458;7.046;2024-02-16T05:42:19;4.50;;;1.17;;
5795;SDS011;2924;51.458;7.046;2024-02-16T05:44:47;2.47;;;1.10;;
5795;SDS011;2924;51.458;7.046;2024-02-16T05:47:13;5.17;;;1.27;;
5795;SDS011;2924;51.458;7.046;2024-02-16T05:49:42;2.47;;;1.40;;
5795;SDS011;2924;51.458;7.046;2024-02-16T05:52:11;4.93;;;1.50;;
5795;SDS011;2924;51.458;7.046;2024-02-16T05:54:42;5.80;;;1.40;;
5795;SDS011;2924;51.458;7.046;2024-02-16T05:57:09;2.60;;;1.53;;
5795;SDS011;2924;51.458;7.046;2024-02-16T05:59:34;2.30;;;1.23;;
5795;SDS011;2924;51.458;7.046;2024-02-16T06:02:00;7.37;;;1.77;;
5795;SDS011;2924;51.458;7.046;2024-02-16T06:04:25;2.10;;;1.70;;
5795;SDS011;2924;51.458;7.046;2024-02-16T06:06:51;1.43;;;1.33;;
5795;SDS011;2924;51.458;7.046;2024-02-16T06:09:18;1.97;;;1.40;;
5795;SDS011;2924;51.458;7.046;2024-02-16T06:11:44;2.87;;;1.50;;
5795;SDS011;2924;51.458;7.046;2024-02-16T06:14:10;3.30;;;1.33;;
5795;SDS011;2924;51.458;7.046;2024-02-16T06:16:35;2.77;;;1.00;;
5795;SDS011;2924;51.458;7.046;2024-02-16T06:19:01;2.60;;;1.90;;
5795;SDS011;2924;51.458;7.046;2024-02-16T06:21:26;4.63;;;1.63;;
5795;SDS011;2924;51.458;7.046;2024-02-16T06:23:52;5.17;;;1.47;;
5795;SDS011;2924;51.458;7.046;2024-02-16T06:26:17;4.13;;;1.53;;
5795;SDS011;2924;51.458;7.046;2024-02-16T06:28:43;3.70;;;1.33;;
5795;SDS011;2924;51.458;7.046;2024-02-16T06:31:09;3.03;;;1.23;;
5795;SDS011;2924;51.458;7.046;2024-02-16T06:33:35;5.40;;;1.40;;
5795;SDS011;2924;51.458;7.046;2024-02-16T06:36:01;2.00;;;1.53;;
5795;SDS011;2924;51.458;7.046;2024-02-16T06:38:27;1.93;;;1.50;;
5795;SDS011;2924;51.458;7.046;2024-02-16T06:40:53;4.20;;;2.13;;
5795;SDS011;2924;51.458;7.046;2024-02-16T06:43:18;1.13;;;0.90;;
5795;SDS011;2924;51.458;7.046;2024-02-16T06:45:44;4.53;;;1.77;;
5795;SDS011;2924;51.458;7.046;2024-02-16T06:48:09;2.77;;;1.17;;
5795;SDS011;2924;51.458;7.046;2024-02-16T06:50:35;1.77;;;1.13;;
5795;SDS011;2924;51.458;7.046;2024-02-16T06:53:00;3.70;;;1.90;;
5795;SDS011;2924;51.458;7.046;2024-02-16T06:55:26;2.20;;;1.30;;
5795;SDS011;2924;51.458;7.046;2024-02-16T06:57:51;3.03;;;1.40;;
5795;SDS011;2924;51.458;7.046;2024-02-16T07:00:17;6.03;;;1.90;;
5795;SDS011;2924;51.458;7.046;2024-02-16T07:02:45;5.23;;;2.27;;
5795;SDS011;2924;51.458;7.046;2024-02-16T07:05:11;6.50;;;1.80;;
5795;SDS011;2924;51.458;7.046;2024-02-16T07:07:37;3.03;;;1.10;;
5795;SDS011;2924;51.458;7.046;2024-02-16T07:10:03;2.50;;;1.40;;
5795;SDS011;2924;51.458;7.046;2024-02-16T07:12:30;11.70;;;2.50;;
5795;SDS011;2924;51.458;7.046;2024-02-16T07:14:58;2.80;;;1.43;;
5795;SDS011;2924;51.458;7.046;2024-02-16T07:17:23;3.10;;;1.73;;
5795;SDS011;2924;51.458;7.046;2024-02-16T07:19:49;2.50;;;1.53;;
5795;SDS011;2924;51.458;7.046;2024-02-16T07:22:14;2.37;;;1.50;;
5795;SDS011;2924;51.458;7.046;2024-02-16T07:24:40;8.07;;;1.20;;
5795;SDS011;2924;51.458;7.046;2024-02-16T07:27:06;3.90;;;1.10;;
5795;SDS011;2924;51.458;7.046;2024-02-16T07:29:31;1.30;;;1.20;;
5795;SDS011;2924;51.458;7.046;2024-02-16T07:31:57;4.53;;;1.60;;
5795;SDS011;2924;51.458;7.046;2024-02-16T07:34:23;6.63;;;1.87;;
5795;SDS011;2924;51.458;7.046;2024-02-16T07:36:48;4.23;;;1.40;;
5795;SDS011;2924;51.458;7.046;2024-02-16T07:39:14;6.47;;;1.43;;
5795;SDS011;2924;51.458;7.046;2024-02-16T07:41:40;8.03;;;3.03;;
5795;SDS011;2924;51.458;7.046;2024-02-16T07:44:05;4.10;;;2.13;;
5795;SDS011;2924;51.458;7.046;2024-02-16T07:46:31;2.60;;;1.47;;
5795;SDS011;2924;51.458;7.046;2024-02-16T07:48:56;3.07;;;1.63;;
5795;SDS011;2924;51.458;7.046;2024-02-16T07:51:22;5.67;;;1.57;;
5795;SDS011;2924;51.458;7.046;2024-02-16T07:53:49;6.37;;;1.60;;
5795;SDS011;2924;51.458;7.046;2024-02-16T07:56:14;5.80;;;1.80;;
5795;SDS011;2924;51.458;7.046;2024-02-16T07:58:41;1.73;;;1.50;;
5795;SDS011;2924;51.458;7.046;2024-02-16T08:01:08;2.40;;;1.63;;
5795;SDS011;2924;51.458;7.046;2024-02-16T08:03:35;2.47;;;1.40;;
5795;SDS011;2924;51.458;7.046;2024-02-16T08:06:01;3.93;;;1.90;;
5795;SDS011;2924;51.458;7.046;2024-02-16T08:08:27;4.60;;;2.13;;
5795;SDS011;2924;51.458;7.046;2024-02-16T08:10:52;3.63;;;1.70;;
5795;SDS011;2924;51.458;7.046;2024-02-16T08:13:18;9.93;;;1.60;;
5795;SDS011;2924;51.458;7.046;2024-02-16T08:15:45;7.77;;;2.43;;
5795;SDS011;2924;51.458;7.046;2024-02-16T08:18:12;1.97;;;1.47;;
5795;SDS011;2924;51.458;7.046;2024-02-16T08:20:38;6.73;;;1.63;;
5795;SDS011;2924;51.458;7.046;2024-02-16T08:23:04;6.30;;;1.90;;
5795;SDS011;2924;51.458;7.046;2024-02-16T08:25:29;4.20;;;1.30;;
5795;SDS011;2924;51.458;7.046;2024-02-16T08:27:58;5.27;;;1.70;;
5795;SDS011;2924;51.458;7.046;2024-02-16T08:30:23;3.23;;;1.70;;
5795;SDS011;2924;51.458;7.046;2024-02-16T08:32:50;5.30;;;2.17;;
5795;SDS011;2924;51.458;7.046;2024-02-16T08:35:16;2.17;;;1.70;;
5795;SDS011;2924;51.458;7.046;2024-02-16T08:37:43;4.93;;;1.47;;
5795;SDS011;2924;51.458;7.046;2024-02-16T08:40:09;1.87;;;1.77;;
5795;SDS011;2924;51.458;7.046;2024-02-16T08:42:39;12.13;;;1.37;;
5795;SDS011;2924;51.458;7.046;2024-02-16T08:45:06;5.50;;;1.47;;
5795;SDS011;2924;51.458;7.046;2024-02-16T08:47:32;3.17;;;2.20;;
5795;SDS011;2924;51.458;7.046;2024-02-16T08:49:57;4.80;;;1.33;;
5795;SDS011;2924;51.458;7.046;2024-02-16T08:52:23;2.50;;;1.60;;
5795;SDS011;2924;51.458;7.046;2024-02-16T08:54:48;2.83;;;1.90;;
5795;SDS011;2924;51.458;7.046;2024-02-16T08:57:14;5.37;;;2.20;;
5795;SDS011;2924;51.458;7.046;2024-02-16T08:59:39;3.93;;;1.70;;
5795;SDS011;2924;51.458;7.046;2024-02-16T09:02:05;2.70;;;1.47;;
5795;SDS011;2924;51.458;7.046;2024-02-16T09:04:31;2.20;;;1.67;;
5795;SDS011;2924;51.458;7.046;2024-02-16T09:06:56;5.50;;;1.43;;
5795;SDS011;2924;51.458;7.046;2024-02-16T09:09:22;1.73;;;1.50;;
5795;SDS011;2924;51.458;7.046;2024-02-16T09:11:48;12.23;;;1.97;;
5795;SDS011;2924;51.458;7.046;2024-02-16T09:14:13;6.47;;;1.70;;
5795;SDS011;2924;51.458;7.046;2024-02-16T09:16:39;5.13;;;2.37;;
5795;SDS011;2924;51.458;7.046;2024-02-16T09:19:05;5.90;;;2.10;;
5795;SDS011;2924;51.458;7.046;2024-02-16T09:21:30;3.47;;;1.60;;
5795;SDS011;2924;51.458;7.046;2024-02-16T09:23:56;10.33;;;2.00;;
5795;SDS011;2924;51.458;7.046;2024-02-16T09:26:26;4.73;;;1.60;;
5795;SDS011;2924;51.458;7.046;2024-02-16T09:28:55;3.60;;;2.20;;
5795;SDS011;2924;51.458;7.046;2024-02-16T09:31:21;6.77;;;1.83;;
5795;SDS011;2924;51.458;7.046;2024-02-16T09:33:46;7.77;;;2.57;;
5795;SDS011;2924;51.458;7.046;2024-02-16T09:36:12;3.63;;;2.00;;
5795;SDS011;2924;51.458;7.046;2024-02-16T09:38:38;6.67;;;1.70;;
5795;SDS011;2924;51.458;7.046;2024-02-16T09:41:03;13.13;;;2.00;;
5795;SDS011;2924;51.458;7.046;2024-02-16T09:43:29;5.20;;;1.83;;
5795;SDS011;2924;51.458;7.046;2024-02-16T09:45:55;3.30;;;1.97;;
5795;SDS011;2924;51.458;7.046;2024-02-16T09:48:23;3.87;;;1.57;;
5795;SDS011;2924;51.458;7.046;2024-02-16T09:50:51;3.63;;;1.87;;
5795;SDS011;2924;51.458;7.046;2024-02-16T09:53:19;5.93;;;1.80;;
5795;SDS011;2924;51.458;7.046;2024-02-16T09:55:49;7.40;;;2.10;;
5795;SDS011;2924;51.458;7.046;2024-02-16T09:58:14;6.40;;;2.23;;
5795;SDS011;2924;51.458;7.046;2024-02-16T10:00:42;10.20;;;2.20;;
5795;SDS011;2924;51.458;7.046;2024-02-16T10:03:20;7.60;;;2.10;;
5795;SDS011;2924;51.458;7.046;2024-02-16T10:06:07;11.50;;;2.60;;
5795;SDS011;2924;51.458;7.046;2024-02-16T10:08:34;4.40;;;1.63;;
5795;SDS011;2924;51.458;7.046;2024-02-16T10:11:11;7.97;;;2.23;;
5795;SDS011;2924;51.458;7.046;2024-02-16T10:13:39;5.83;;;1.80;;
5795;SDS011;2924;51.458;7.046;2024-02-16T10:16:09;4.77;;;1.90;;
5795;SDS011;2924;51.458;7.046;2024-02-16T10:18:36;5.63;;;2.40;;
5795;SDS011;2924;51.458;7.046;2024-02-16T10:21:03;7.17;;;2.37;;
5795;SDS011;2924;51.458;7.046;2024-02-16T10:23:29;5.03;;;2.13;;
5795;SDS011;2924;51.458;7.046;2024-02-16T10:25:55;2.43;;;1.47;;
5795;SDS011;2924;51.458;7.046;2024-02-16T10:28:24;4.37;;;2.10;;
5795;SDS011;2924;51.458;7.046;2024-02-16T10:30:57;3.33;;;2.10;;
5795;SDS011;2924;51.458;7.046;2024-02-16T10:33:27;8.73;;;3.33;;
5795;SDS011;2924;51.458;7.046;2024-02-16T10:35:55;8.17;;;1.83;;
5795;SDS011;2924;51.458;7.046;2024-02-16T10:38:22;4.00;;;1.97;;
5795;SDS011;2924;51.458;7.046;2024-02-16T10:40:48;3.07;;;1.77;;
5795;SDS011;2924;51.458;7.046;2024-02-16T10:43:16;3.40;;;2.10;;
5795;SDS011;2924;51.458;7.046;2024-02-16T10:45:43;9.20;;;2.30;;
5795;SDS011;2924;51.458;7.046;2024-02-16T10:48:12;5.93;;;1.90;;
5795;SDS011;2924;51.458;7.046;2024-02-16T10:50:40;5.30;;;2.20;;
5795;SDS011;2924;51.458;7.046;2024-02-16T10:53:11;5.93;;;2.00;;
5795;SDS011;2924;51.458;7.046;2024-02-16T10:55:48;3.13;;;2.13;;
5795;SDS011;2924;51.458;7.046;2024-02-16T10:58:14;11.30;;;2.80;;
5795;SDS011;2924;51.458;7.046;2024-02-16T11:00:52;4.93;;;2.40;;
5795;SDS011;2924;51.458;7.046;2024-02-16T11:03:22;7.73;;;1.83;;
5795;SDS011;2924;51.458;7.046;2024-02-16T11:05:49;12.30;;;2.80;;
5795;SDS011;2924;51.458;7.046;2024-02-16T11:08:16;7.10;;;3.00;;
5795;SDS011;2924;51.458;7.046;2024-02-16T11:10:55;9.93;;;2.53;;
5795;SDS011;2924;51.458;7.046;2024-02-16T11:13:26;8.03;;;2.40;;
5795;SDS011;2924;51.458;7.046;2024-02-16T11:16:02;4.47;;;2.33;;
5795;SDS011;2924;51.458;7.046;2024-02-16T11:18:36;10.33;;;2.67;;
5795;SDS011;2924;51.458;7.046;2024-02-16T11:21:03;6.23;;;2.80;;
5795;SDS011;2924;51.458;7.046;2024-02-16T11:23:30;4.70;;;1.93;;
5795;SDS011;2924;51.458;7.046;2024-02-16T11:26:19;13.53;;;2.50;;
5795;SDS011;2924;51.458;7.046;2024-02-16T11:28:44;7.87;;;2.70;;
5795;SDS011;2924;51.458;7.046;2024-02-16T11:44:53;6.70;;;1.90;;
5795;SDS011;2924;51.458;7.046;2024-02-16T11:47:20;5.90;;;2.03;;
5795;SDS011;2924;51.458;7.046;2024-02-16T11:49:59;5.87;;;2.60;;
5795;SDS011;2924;51.458;7.046;2024-02-16T11:52:40;5.50;;;2.33;;
5795;SDS011;2924;51.458;7.046;2024-02-16T11:55:10;3.30;;;2.10;;
5795;SDS011;2924;51.458;7.046;2024-02-16T11:57:36;7.40;;;2.93;;
5795;SDS011;2924;51.458;7.046;2024-02-16T12:00:03;9.67;;;2.23;;
5795;SDS011;2924;51.458;7.046;2024-02-16T12:02:34;8.90;;;3.17;;
5795;SDS011;2924;51.458;7.046;2024-02-16T12:05:01;8.50;;;2.47;;
5795;SDS011;2924;51.458;7.046;2024-02-16T12:07:27;7.00;;;3.10;;
5795;SDS011;2924;51.458;7.046;2024-02-16T12:10:00;3.53;;;2.23;;
5795;SDS011;2924;51.458;7.046;2024-02-16T12:12:27;10.43;;;3.60;;
5795;SDS011;2924;51.458;7.046;2024-02-16T12:14:55;5.07;;;3.30;;
5795;SDS011;2924;51.458;7.046;2024-02-16T12:17:21;9.57;;;2.73;;
5795;SDS011;2924;51.458;7.046;2024-02-16T12:19:47;4.80;;;2.90;;
5795;SDS011;2924;51.458;7.046;2024-02-16T12:22:18;8.13;;;2.80;;
5795;SDS011;2924;51.458;7.046;2024-02-16T12:24:45;7.63;;;2.43;;
5795;SDS011;2924;51.458;7.046;2024-02-16T12:27:11;14.57;;;3.60;;
5795;SDS011;2924;51.458;7.046;2024-02-16T12:29:36;7.67;;;2.80;;
5795;SDS011;2924;51.458;7.046;2024-02-16T12:32:03;5.50;;;2.57;;
5795;SDS011;2924;51.458;7.046;2024-02-16T12:34:28;5.60;;;2.80;;
5795;SDS011;2924;51.458;7.046;2024-02-16T12:36:54;9.33;;;3.03;;
5795;SDS011;2924;51.458;7.046;2024-02-16T12:39:20;8.07;;;3.13;;
5795;SDS011;2924;51.458;7.046;2024-02-16T12:41:46;11.97;;;4.27;;
5795;SDS011;2924;51.458;7.046;2024-02-16T12:44:13;9.80;;;3.93;;
5795;SDS011;2924;51.458;7.046;2024-02-16T12:46:38;11.20;;;3.97;;
5795;SDS011;2924;51.458;7.046;2024-02-16T12:49:04;11.10;;;3.50;;
5795;SDS011;2924;51.458;7.046;2024-02-16T12:51:30;10.20;;;3.43;;
5795;SDS011;2924;51.458;7.046;2024-02-16T12:53:55;10.63;;;3.90;;
5795;SDS011;2924;51.458;7.046;2024-02-16T12:56:21;8.13;;;3.57;;
5795;SDS011;2924;51.458;7.046;2024-02-16T12:58:47;9.40;;;4.00;;
5795;SDS011;2924;51.458;7.046;2024-02-16T13:01:13;9.47;;;3.80;;
5795;SDS011;2924;51.458;7.046;2024-02-16T13:03:38;5.30;;;3.67;;
5795;SDS011;2924;51.458;7.046;2024-02-16T13:06:04;15.20;;;4.30;;
5795;SDS011;2924;51.458;7.046;2024-02-16T13:08:30;8.10;;;5.03;;
5795;SDS011;2924;51.458;7.046;2024-02-16T13:10:57;14.50;;;3.60;;
5795;SDS011;2924;51.458;7.046;2024-02-16T13:13:23;9.20;;;4.30;;
5795;SDS011;2924;51.458;7.046;2024-02-16T13:15:49;12.73;;;4.70;;
5795;SDS011;2924;51.458;7.046;2024-02-16T13:18:15;5.13;;;4.63;;
5795;SDS011;2924;51.458;7.046;2024-02-16T13:20:41;13.80;;;4.30;;
5795;SDS011;2924;51.458;7.046;2024-02-16T13:23:08;10.37;;;4.20;;
5795;SDS011;2924;51.458;7.046;2024-02-16T13:25:34;6.83;;;3.87;;
5795;SDS011;2924;51.458;7.046;2024-02-16T13:28:00;10.40;;;4.30;;
5795;SDS011;2924;51.458;7.046;2024-02-16T13:30:26;9.47;;;4.00;;
5795;SDS011;2924;51.458;7.046;2024-02-16T13:32:55;8.30;;;4.70;;
5795;SDS011;2924;51.458;7.046;2024-02-16T13:35:20;14.57;;;5.60;;
5795;SDS011;2924;51.458;7.046;2024-02-16T13:37:46;11.93;;;5.27;;
5795;SDS011;2924;51.458;7.046;2024-02-16T13:40:12;11.07;;;5.40;;
5795;SDS011;2924;51.458;7.046;2024-02-16T13:42:38;7.40;;;4.60;;
5795;SDS011;2924;51.458;7.046;2024-02-16T13:45:04;6.40;;;4.30;;
5795;SDS011;2924;51.458;7.046;2024-02-16T13:47:30;11.90;;;6.00;;
5795;SDS011;2924;51.458;7.046;2024-02-16T13:49:56;10.73;;;5.30;;
5795;SDS011;2924;51.458;7.046;2024-02-16T13:52:25;11.60;;;6.90;;
5795;SDS011;2924;51.458;7.046;2024-02-16T13:54:51;13.40;;;5.90;;
5795;SDS011;2924;51.458;7.046;2024-02-16T13:57:16;10.27;;;6.73;;
5795;SDS011;2924;51.458;7.046;2024-02-16T13:59:42;11.60;;;7.70;;
5795;SDS011;2924;51.458;7.046;2024-02-16T14:02:09;11.57;;;7.87;;
5795;SDS011;2924;51.458;7.046;2024-02-16T14:04:35;13.50;;;8.40;;
5795;SDS011;2924;51.458;7.046;2024-02-16T14:07:01;15.00;;;9.87;;
5795;SDS011;2924;51.458;7.046;2024-02-16T14:09:27;14.33;;;9.67;;
5795;SDS011;2924;51.458;7.046;2024-02-16T14:11:53;16.37;;;11.20;;
5795;SDS011;2924;51.458;7.046;2024-02-16T14:14:20;17.80;;;10.07;;
5795;SDS011;2924;51.458;7.046;2024-02-16T14:16:47;13.40;;;10.27;;
5795;SDS011;2924;51.458;7.046;2024-02-16T14:19:12;16.67;;;9.67;;
5795;SDS011;2924;51.458;7.046;2024-02-16T14:21:38;24.90;;;11.07;;
5795;SDS011;2924;51.458;7.046;2024-02-16T14:24:04;21.03;;;11.57;;
5795;SDS011;2924;51.458;7.046;2024-02-16T14:26:29;15.30;;;11.00;;
5795;SDS011;2924;51.458;7.046;2024-02-16T14:28:55;19.60;;;10.47;;
5795;SDS011;2924;51.458;7.046;2024-02-16T14:31:21;14.43;;;11.10;;
5795;SDS011;2924;51.458;7.046;2024-02-16T14:33:50;16.43;;;10.40;;
5795;SDS011;2924;51.458;7.046;2024-02-16T14:36:15;17.77;;;11.20;;
5795;SDS011;2924;51.458;7.046;2024-02-16T14:38:41;16.70;;;10.50;;
5795;SDS011;2924;51.458;7.046;2024-02-16T14:41:07;26.60;;;11.70;;
5795;SDS011;2924;51.458;7.046;2024-02-16T14:43:33;13.80;;;10.77;;
5795;SDS011;2924;51.458;7.046;2024-02-16T14:45:59;17.90;;;12.00;;
5795;SDS011;2924;51.458;7.046;2024-02-16T14:48:25;15.77;;;10.33;;
5795;SDS011;2924;51.458;7.046;2024-02-16T14:50:54;14.57;;;11.33;;
5795;SDS011;2924;51.458;7.046;2024-02-16T14:53:19;19.50;;;11.33;;
5795;SDS011;2924;51.458;7.046;2024-02-16T14:55:46;19.50;;;11.50;;
5795;SDS011;2924;51.458;7.046;2024-02-16T14:58:12;16.50;;;11.20;;
5795;SDS011;2924;51.458;7.046;2024-02-16T15:00:37;15.37;;;10.63;;
5795;SDS011;2924;51.458;7.046;2024-02-16T15:03:03;16.97;;;11.53;;
5795;SDS011;2924;51.458;7.046;2024-02-16T15:05:29;16.13;;;12.73;;
5795;SDS011;2924;51.458;7.046;2024-02-16T15:07:55;14.30;;;11.97;;
5795;SDS011;2924;51.458;7.046;2024-02-16T15:10:21;18.03;;;13.60;;
5795;SDS011;2924;51.458;7.046;2024-02-16T15:12:46;24.33;;;14.30;;
5795;SDS011;2924;51.458;7.046;2024-02-16T15:15:12;18.00;;;14.73;;
5795;SDS011;2924;51.458;7.046;2024-02-16T15:17:38;18.37;;;13.97;;
5795;SDS011;2924;51.458;7.046;2024-02-16T15:20:05;21.77;;;14.73;;
5795;SDS011;2924;51.458;7.046;2024-02-16T15:22:31;22.70;;;16.23;;